sensor_id;sensor_type;location;lat;lon;timestamp;pressure;altitude;pressure_sealevel;temperature;humidity
53011;BME280;42803;55.762;38.084;2023-04-30T00:00:07;99953.25;;;0.39;100.00
53011;BME280;42803;55.762;38.084;2023-04-30T00:02:38;99969.22;;;0.43;100.00
53011;BME280;42803;55.762;38.084;2023-04-30T00:05:08;99958.97;;;0.51;100.00
53011;BME280;42803;55.762;38.084;2023-04-30T00:07:37;99962.63;;;0.53;100.00
53011;BME280;42803;55.762;38.084;2023-04-30T00:10:09;99966.84;;;0.52;100.00
53011;BME280;42803;55.762;38.084;2023-04-30T00:12:39;99961.75;;;0.66;100.00
53011;BME280;42803;55.762;38.084;2023-04-30T00:15:09;99968.91;;;0.76;100.00
53011;BME280;42803;55.762;38.084;2023-04-30T00:17:39;99970.22;;;0.80;100.00
53011;BME280;42803;55.762;38.084;2023-04-30T00:20:09;99968.59;;;0.80;100.00
53011;BME280;42803;55.762;38.084;2023-04-30T00:22:39;99977.38;;;0.75;100.00
53011;BME280;42803;55.762;38.084;2023-04-30T00:25:08;99973.13;;;0.68;100.00
53011;BME280;42803;55.762;38.084;2023-04-30T00:27:37;99979.22;;;0.69;100.00
53011;BME280;42803;55.762;38.084;2023-04-30T00:30:10;99981.59;;;0.75;100.00
53011;BME280;42803;55.762;38.084;2023-04-30T00:32:41;99983.78;;;0.71;100.00
53011;BME280;42803;55.762;38.084;2023-04-30T00:35:12;99987.06;;;0.63;100.00
53011;BME280;42803;55.762;38.084;2023-04-30T00:37:41;99989.63;;;0.63;100.00
53011;BME280;42803;55.762;38.084;2023-04-30T00:40:11;99984.41;;;0.42;100.00
53011;BME280;42803;55.762;38.084;2023-04-30T00:42:40;99991.88;;;0.26;100.00
53011;BME280;42803;55.762;38.084;2023-04-30T00:45:11;99993.13;;;0.15;100.00
53011;BME280;42803;55.762;38.084;2023-04-30T00:47:40;99987.22;;;0.09;100.00
53011;BME280;42803;55.762;38.084;2023-04-30T00:50:09;99989.03;;;0.10;100.00
53011;BME280;42803;55.762;38.084;2023-04-30T00:52:43;99987.78;;;0.14;100.00
53011;BME280;42803;55.762;38.084;2023-04-30T00:55:12;99982.28;;;0.18;100.00
53011;BME280;42803;55.762;38.084;2023-04-30T00:57:42;99990.22;;;0.19;100.00
53011;BME280;42803;55.762;38.084;2023-04-30T01:00:13;99992.72;;;0.12;100.00
53011;BME280;42803;55.762;38.084;2023-04-30T01:02:42;99989.59;;;0.08;100.00
53011;BME280;42803;55.762;38.084;2023-04-30T01:05:11;99996.34;;;0.00;100.00
53011;BME280;42803;55.762;38.084;2023-04-30T01:07:40;99996.53;;;0.02;100.00
53011;BME280;42803;55.762;38.084;2023-04-30T01:10:13;99991.91;;;-0.01;100.00
53011;BME280;42803;55.762;38.084;2023-04-30T01:12:47;99991.34;;;-0.06;100.00
53011;BME280;42803;55.762;38.084;2023-04-30T01:15:26;99987.50;;;-0.02;100.00
53011;BME280;42803;55.762;38.084;2023-04-30T01:18:01;99990.81;;;-0.03;100.00
53011;BME280;42803;55.762;38.084;2023-04-30T01:20:32;99999.25;;;0.03;100.00
53011;BME280;42803;55.762;38.084;2023-04-30T01:23:10;100000.09;;;0.16;100.00
53011;BME280;42803;55.762;38.084;2023-04-30T01:26:12;99998.22;;;0.08;100.00
53011;BME280;42803;55.762;38.084;2023-04-30T01:28:45;99998.97;;;0.14;100.00
53011;BME280;42803;55.762;38.084;2023-04-30T01:31:17;99994.22;;;0.17;100.00
53011;BME280;42803;55.762;38.084;2023-04-30T01:33:46;99990.91;;;0.18;100.00
53011;BME280;42803;55.762;38.084;2023-04-30T01:36:34;99996.09;;;0.26;100.00
53011;BME280;42803;55.762;38.084;2023-04-30T01:39:18;100002.75;;;0.38;100.00
53011;BME280;42803;55.762;38.084;2023-04-30T01:41:57;99996.94;;;0.46;100.00
53011;BME280;42803;55.762;38.084;2023-04-30T01:44:42;99991.78;;;0.46;100.00
53011;BME280;42803;55.762;38.084;2023-04-30T01:47:23;99995.63;;;0.49;100.00
53011;BME280;42803;55.762;38.084;2023-04-30T01:50:04;99995.66;;;0.57;100.00
53011;BME280;42803;55.762;38.084;2023-04-30T01:52:40;99995.34;;;0.68;100.00
53011;BME280;42803;55.762;38.084;2023-04-30T01:55:17;99996.50;;;0.91;100.00
53011;BME280;42803;55.762;38.084;2023-04-30T01:57:54;99991.41;;;1.20;100.00
53011;BME280;42803;55.762;38.084;2023-04-30T02:00:27;99993.44;;;1.58;100.00
53011;BME280;42803;55.762;38.084;2023-04-30T02:02:58;99994.50;;;1.96;100.00
53011;BME280;42803;55.762;38.084;2023-04-30T02:05:29;99990.34;;;2.27;100.00
53011;BME280;42803;55.762;38.084;2023-04-30T02:07:59;99989.22;;;2.39;100.00
53011;BME280;42803;55.762;38.084;2023-04-30T02:10:28;99978.53;;;1.84;100.00
53011;BME280;42803;55.762;38.084;2023-04-30T02:12:57;99974.72;;;1.38;100.00
53011;BME280;42803;55.762;38.084;2023-04-30T02:15:28;99976.53;;;1.17;100.00
53011;BME280;42803;55.762;38.084;2023-04-30T02:17:57;99980.56;;;1.08;100.00
53011;BME280;42803;55.762;38.084;2023-04-30T02:20:27;99980.91;;;0.97;100.00
53011;BME280;42803;55.762;38.084;2023-04-30T02:22:56;99984.59;;;0.92;100.00
53011;BME280;42803;55.762;38.084;2023-04-30T02:25:25;99981.81;;;0.90;100.00
53011;BME280;42803;55.762;38.084;2023-04-30T02:27:54;99975.41;;;0.94;100.00
53011;BME280;42803;55.762;38.084;2023-04-30T02:30:23;99973.94;;;0.96;100.00
53011;BME280;42803;55.762;38.084;2023-04-30T02:32:53;99969.16;;;0.99;100.00
53011;BME280;42803;55.762;38.084;2023-04-30T02:35:23;99966.41;;;1.05;100.00
53011;BME280;42803;55.762;38.084;2023-04-30T02:37:52;99968.44;;;1.07;100.00
53011;BME280;42803;55.762;38.084;2023-04-30T02:40:21;99966.25;;;1.03;100.00
53011;BME280;42803;55.762;38.084;2023-04-30T02:42:50;99961.66;;;1.08;100.00
53011;BME280;42803;55.762;38.084;2023-04-30T02:45:20;99959.06;;;1.22;100.00
53011;BME280;42803;55.762;38.084;2023-04-30T02:47:49;99960.00;;;1.37;100.00
53011;BME280;42803;55.762;38.084;2023-04-30T02:50:20;99966.78;;;1.51;100.00
53011;BME280;42803;55.762;38.084;2023-04-30T02:52:49;99958.88;;;1.70;100.00
53011;BME280;42803;55.762;38.084;2023-04-30T02:55:18;99958.44;;;1.96;100.00
53011;BME280;42803;55.762;38.084;2023-04-30T02:57:47;99953.38;;;2.26;100.00
53011;BME280;42803;55.762;38.084;2023-04-30T03:00:16;99957.44;;;2.61;100.00
53011;BME280;42803;55.762;38.084;2023-04-30T03:02:45;99963.03;;;2.87;100.00
53011;BME280;42803;55.762;38.084;2023-04-30T03:05:14;99955.41;;;2.96;100.00
53011;BME280;42803;55.762;38.084;2023-04-30T03:07:45;99960.06;;;3.14;100.00
53011;BME280;42803;55.762;38.084;2023-04-30T03:10:14;99960.81;;;3.13;100.00
53011;BME280;42803;55.762;38.084;2023-04-30T03:12:46;99964.88;;;3.34;100.00
53011;BME280;42803;55.762;38.084;2023-04-30T03:15:17;99953.75;;;3.42;100.00
53011;BME280;42803;55.762;38.084;2023-04-30T03:17:46;99954.25;;;3.47;100.00
53011;BME280;42803;55.762;38.084;2023-04-30T03:20:15;99959.41;;;3.47;100.00
53011;BME280;42803;55.762;38.084;2023-04-30T03:22:46;99957.69;;;3.55;100.00
53011;BME280;42803;55.762;38.084;2023-04-30T03:25:15;99953.88;;;3.51;100.00
53011;BME280;42803;55.762;38.084;2023-04-30T03:27:44;99950.69;;;3.54;100.00
53011;BME280;42803;55.762;38.084;2023-04-30T03:30:13;99957.88;;;3.56;100.00
53011;BME280;42803;55.762;38.084;2023-04-30T03:32:42;99951.28;;;3.74;100.00
53011;BME280;42803;55.762;38.084;2023-04-30T03:35:11;99943.97;;;3.86;100.00
53011;BME280;42803;55.762;38.084;2023-04-30T03:37:40;99937.81;;;4.08;100.00
53011;BME280;42803;55.762;38.084;2023-04-30T03:40:12;99935.28;;;4.33;100.00
53011;BME280;42803;55.762;38.084;2023-04-30T03:42:41;99923.84;;;4.47;100.00
53011;BME280;42803;55.762;38.084;2023-04-30T03:45:10;99921.25;;;4.62;100.00
53011;BME280;42803;55.762;38.084;2023-04-30T03:47:40;99923.91;;;4.55;100.00
53011;BME280;42803;55.762;38.084;2023-04-30T03:50:09;99917.09;;;4.40;100.00
53011;BME280;42803;55.762;38.084;2023-04-30T03:52:39;99909.94;;;4.37;100.00
53011;BME280;42803;55.762;38.084;2023-04-30T03:55:09;99914.03;;;4.35;100.00
53011;BME280;42803;55.762;38.084;2023-04-30T03:57:40;99899.16;;;4.42;100.00
53011;BME280;42803;55.762;38.084;2023-04-30T04:00:10;99903.56;;;4.43;100.00
53011;BME280;42803;55.762;38.084;2023-04-30T04:02:40;99896.44;;;4.40;100.00
53011;BME280;42803;55.762;38.084;2023-04-30T04:05:11;99905.50;;;4.52;100.00
53011;BME280;42803;55.762;38.084;2023-04-30T04:07:40;99905.41;;;4.59;100.00
53011;BME280;42803;55.762;38.084;2023-04-30T04:10:09;99901.94;;;4.68;100.00
53011;BME280;42803;55.762;38.084;2023-04-30T04:12:40;99901.28;;;4.77;100.00
53011;BME280;42803;55.762;38.084;2023-04-30T04:15:09;99902.38;;;4.88;100.00
53011;BME280;42803;55.762;38.084;2023-04-30T04:17:38;99904.03;;;4.87;100.00
53011;BME280;42803;55.762;38.084;2023-04-30T04:20:09;99898.78;;;4.95;100.00
53011;BME280;42803;55.762;38.084;2023-04-30T04:22:41;99906.91;;;5.06;100.00
53011;BME280;42803;55.762;38.084;2023-04-30T04:25:10;99893.28;;;5.25;100.00
53011;BME280;42803;55.762;38.084;2023-04-30T04:27:43;99894.06;;;5.24;100.00
53011;BME280;42803;55.762;38.084;2023-04-30T04:30:12;99891.53;;;5.41;100.00
53011;BME280;42803;55.762;38.084;2023-04-30T04:32:42;99886.09;;;5.55;100.00
53011;BME280;42803;55.762;38.084;2023-04-30T04:35:16;99891.94;;;5.79;100.00
53011;BME280;42803;55.762;38.084;2023-04-30T04:37:47;99884.72;;;6.09;100.00
53011;BME280;42803;55.762;38.084;2023-04-30T04:40:16;99883.50;;;6.32;100.00
53011;BME280;42803;55.762;38.084;2023-04-30T04:42:49;99876.50;;;6.57;100.00
53011;BME280;42803;55.762;38.084;2023-04-30T04:45:19;99872.63;;;6.71;100.00
53011;BME280;42803;55.762;38.084;2023-04-30T04:47:49;99877.34;;;6.92;100.00
53011;BME280;42803;55.762;38.084;2023-04-30T04:50:19;99875.34;;;6.98;100.00
53011;BME280;42803;55.762;38.084;2023-04-30T04:52:48;99882.78;;;7.04;100.00
53011;BME280;42803;55.762;38.084;2023-04-30T04:55:17;99881.06;;;7.22;100.00
53011;BME280;42803;55.762;38.084;2023-04-30T04:57:48;99870.69;;;7.49;100.00
53011;BME280;42803;55.762;38.084;2023-04-30T05:00:17;99877.63;;;7.68;100.00
53011;BME280;42803;55.762;38.084;2023-04-30T05:02:48;99868.31;;;7.89;100.00
53011;BME280;42803;55.762;38.084;2023-04-30T05:05:18;99869.19;;;7.98;100.00
53011;BME280;42803;55.762;38.084;2023-04-30T05:07:47;99869.13;;;8.06;100.00
53011;BME280;42803;55.762;38.084;2023-04-30T05:10:19;99868.28;;;8.16;100.00
53011;BME280;42803;55.762;38.084;2023-04-30T05:12:50;99853.66;;;8.27;100.00
53011;BME280;42803;55.762;38.084;2023-04-30T05:15:19;99851.28;;;8.39;100.00
53011;BME280;42803;55.762;38.084;2023-04-30T05:17:48;99853.75;;;8.56;100.00
53011;BME280;42803;55.762;38.084;2023-04-30T05:20:17;99856.06;;;8.53;99.49
53011;BME280;42803;55.762;38.084;2023-04-30T05:22:46;99849.03;;;8.33;98.98
53011;BME280;42803;55.762;38.084;2023-04-30T05:25:15;99849.13;;;8.43;100.00
53011;BME280;42803;55.762;38.084;2023-04-30T05:27:44;99842.75;;;8.69;98.11
53011;BME280;42803;55.762;38.084;2023-04-30T05:30:15;99844.00;;;8.93;95.09
53011;BME280;42803;55.762;38.084;2023-04-30T05:32:44;99840.81;;;9.06;93.32
53011;BME280;42803;55.762;38.084;2023-04-30T05:35:17;99839.91;;;9.15;90.85
53011;BME280;42803;55.762;38.084;2023-04-30T05:37:46;99842.44;;;9.34;91.79
53011;BME280;42803;55.762;38.084;2023-04-30T05:40:16;99844.44;;;9.47;88.73
53011;BME280;42803;55.762;38.084;2023-04-30T05:42:46;99848.47;;;9.53;87.82
53011;BME280;42803;55.762;38.084;2023-04-30T05:45:17;99835.72;;;9.57;86.25
53011;BME280;42803;55.762;38.084;2023-04-30T05:47:46;99826.75;;;9.73;87.45
53011;BME280;42803;55.762;38.084;2023-04-30T05:50:15;99825.31;;;9.97;84.16
53011;BME280;42803;55.762;38.084;2023-04-30T05:52:45;99818.75;;;10.23;81.58
53011;BME280;42803;55.762;38.084;2023-04-30T05:55:14;99830.63;;;10.30;82.08
53011;BME280;42803;55.762;38.084;2023-04-30T05:57:43;99831.81;;;10.23;81.90
53011;BME280;42803;55.762;38.084;2023-04-30T06:00:13;99832.31;;;10.29;78.18
53011;BME280;42803;55.762;38.084;2023-04-30T06:02:44;99832.06;;;10.26;77.90
53011;BME280;42803;55.762;38.084;2023-04-30T06:05:13;99835.47;;;10.35;77.04
53011;BME280;42803;55.762;38.084;2023-04-30T06:07:42;99840.59;;;10.66;76.21
53011;BME280;42803;55.762;38.084;2023-04-30T06:10:12;99843.94;;;10.75;75.02
53011;BME280;42803;55.762;38.084;2023-04-30T06:12:41;99842.56;;;11.22;74.71
53011;BME280;42803;55.762;38.084;2023-04-30T06:15:10;99830.53;;;11.46;74.29
53011;BME280;42803;55.762;38.084;2023-04-30T06:17:39;99837.00;;;11.52;70.97
53011;BME280;42803;55.762;38.084;2023-04-30T06:20:11;99836.19;;;11.41;70.04
53011;BME280;42803;55.762;38.084;2023-04-30T06:22:41;99841.44;;;11.41;70.58
53011;BME280;42803;55.762;38.084;2023-04-30T06:25:10;99852.47;;;10.94;71.94
53011;BME280;42803;55.762;38.084;2023-04-30T06:27:39;99840.94;;;11.03;72.88
53011;BME280;42803;55.762;38.084;2023-04-30T06:30:09;99848.97;;;11.26;71.30
53011;BME280;42803;55.762;38.084;2023-04-30T06:32:38;99847.88;;;11.02;71.65
53011;BME280;42803;55.762;38.084;2023-04-30T06:35:08;99840.84;;;11.01;70.35
53011;BME280;42803;55.762;38.084;2023-04-30T06:37:39;99843.06;;;11.07;70.92
53011;BME280;42803;55.762;38.084;2023-04-30T06:40:08;99840.31;;;11.27;68.89
53011;BME280;42803;55.762;38.084;2023-04-30T06:42:37;99837.72;;;11.49;67.60
53011;BME280;42803;55.762;38.084;2023-04-30T06:45:08;99839.31;;;11.59;66.20
53011;BME280;42803;55.762;38.084;2023-04-30T06:47:37;99836.66;;;11.91;66.40
53011;BME280;42803;55.762;38.084;2023-04-30T06:50:09;99823.94;;;12.07;64.33
53011;BME280;42803;55.762;38.084;2023-04-30T06:52:39;99829.59;;;12.02;63.93
53011;BME280;42803;55.762;38.084;2023-04-30T06:55:08;99823.28;;;12.10;64.41
53011;BME280;42803;55.762;38.084;2023-04-30T06:57:37;99819.19;;;12.25;64.06
53011;BME280;42803;55.762;38.084;2023-04-30T07:00:07;99815.09;;;12.40;61.81
53011;BME280;42803;55.762;38.084;2023-04-30T07:02:37;99819.97;;;12.48;60.38
53011;BME280;42803;55.762;38.084;2023-04-30T07:05:06;99803.94;;;12.55;61.53
53011;BME280;42803;55.762;38.084;2023-04-30T07:07:36;99793.06;;;12.85;60.86
53011;BME280;42803;55.762;38.084;2023-04-30T07:10:08;99798.19;;;12.96;60.47
53011;BME280;42803;55.762;38.084;2023-04-30T07:12:37;99800.06;;;12.38;59.21
53011;BME280;42803;55.762;38.084;2023-04-30T07:15:07;99798.69;;;12.31;60.05
53011;BME280;42803;55.762;38.084;2023-04-30T07:17:36;99790.50;;;12.62;61.70
53011;BME280;42803;55.762;38.084;2023-04-30T07:20:07;99790.06;;;12.56;60.31
53011;BME280;42803;55.762;38.084;2023-04-30T07:22:36;99786.16;;;12.51;58.33
53011;BME280;42803;55.762;38.084;2023-04-30T07:25:08;99785.94;;;12.71;58.52
53011;BME280;42803;55.762;38.084;2023-04-30T07:27:37;99780.59;;;12.58;55.53
53011;BME280;42803;55.762;38.084;2023-04-30T07:30:07;99785.94;;;12.48;54.97
53011;BME280;42803;55.762;38.084;2023-04-30T07:32:37;99779.78;;;12.59;55.41
53011;BME280;42803;55.762;38.084;2023-04-30T07:35:08;99765.91;;;12.60;55.07
53011;BME280;42803;55.762;38.084;2023-04-30T07:37:37;99770.22;;;12.48;55.30
53011;BME280;42803;55.762;38.084;2023-04-30T07:40:10;99760.47;;;12.45;54.66
53011;BME280;42803;55.762;38.084;2023-04-30T07:42:52;99765.63;;;12.92;54.19
53011;BME280;42803;55.762;38.084;2023-04-30T07:45:21;99758.25;;;12.86;52.54
53011;BME280;42803;55.762;38.084;2023-04-30T07:47:50;99761.59;;;12.49;51.95
53011;BME280;42803;55.762;38.084;2023-04-30T07:50:19;99745.81;;;12.84;53.10
53011;BME280;42803;55.762;38.084;2023-04-30T07:52:48;99734.47;;;12.72;52.16
53011;BME280;42803;55.762;38.084;2023-04-30T07:55:19;99717.28;;;12.75;52.46
53011;BME280;42803;55.762;38.084;2023-04-30T07:57:48;99712.94;;;13.01;51.72
53011;BME280;42803;55.762;38.084;2023-04-30T08:00:17;99703.94;;;12.72;52.58
53011;BME280;42803;55.762;38.084;2023-04-30T08:02:48;99703.25;;;12.63;52.23
53011;BME280;42803;55.762;38.084;2023-04-30T08:05:17;99700.78;;;12.64;53.61
53011;BME280;42803;55.762;38.084;2023-04-30T08:07:47;99704.59;;;12.81;53.49
53011;BME280;42803;55.762;38.084;2023-04-30T08:10:16;99695.41;;;13.00;52.67
53011;BME280;42803;55.762;38.084;2023-04-30T08:12:46;99695.00;;;12.93;53.69
53011;BME280;42803;55.762;38.084;2023-04-30T08:15:15;99679.34;;;12.70;53.75
53011;BME280;42803;55.762;38.084;2023-04-30T08:17:45;99673.50;;;12.49;53.33
53011;BME280;42803;55.762;38.084;2023-04-30T08:20:15;99661.34;;;12.26;54.24
53011;BME280;42803;55.762;38.084;2023-04-30T08:22:45;99663.72;;;12.35;53.51
53011;BME280;42803;55.762;38.084;2023-04-30T08:25:14;99651.47;;;12.22;54.55
53011;BME280;42803;55.762;38.084;2023-04-30T08:27:43;99648.53;;;12.06;54.04
53011;BME280;42803;55.762;38.084;2023-04-30T08:30:14;99649.22;;;11.91;53.82
53011;BME280;42803;55.762;38.084;2023-04-30T08:32:43;99632.63;;;11.91;53.50
53011;BME280;42803;55.762;38.084;2023-04-30T08:35:13;99629.28;;;12.29;54.80
53011;BME280;42803;55.762;38.084;2023-04-30T08:37:43;99627.50;;;12.53;53.89
53011;BME280;42803;55.762;38.084;2023-04-30T08:40:19;99618.31;;;12.34;52.89
53011;BME280;42803;55.762;38.084;2023-04-30T08:43:10;99614.34;;;12.28;52.37
53011;BME280;42803;55.762;38.084;2023-04-30T08:45:41;99608.91;;;12.13;53.12
53011;BME280;42803;55.762;38.084;2023-04-30T08:48:12;99606.22;;;12.00;52.12
53011;BME280;42803;55.762;38.084;2023-04-30T08:50:43;99612.38;;;11.88;52.84
53011;BME280;42803;55.762;38.084;2023-04-30T08:53:14;99608.34;;;12.29;52.60
53011;BME280;42803;55.762;38.084;2023-04-30T08:55:44;99599.53;;;12.28;51.22
53011;BME280;42803;55.762;38.084;2023-04-30T08:58:13;99603.34;;;12.08;51.85
53011;BME280;42803;55.762;38.084;2023-04-30T09:00:43;99595.75;;;12.00;52.14
53011;BME280;42803;55.762;38.084;2023-04-30T09:03:12;99592.91;;;11.73;52.20
53011;BME280;42803;55.762;38.084;2023-04-30T09:05:41;99573.69;;;11.49;52.64
53011;BME280;42803;55.762;38.084;2023-04-30T09:08:15;99571.19;;;11.39;52.65
53011;BME280;42803;55.762;38.084;2023-04-30T09:10:45;99574.13;;;11.20;53.83
53011;BME280;42803;55.762;38.084;2023-04-30T09:13:14;99578.91;;;11.37;53.73
53011;BME280;42803;55.762;38.084;2023-04-30T09:15:50;99566.53;;;11.46;53.85
53011;BME280;42803;55.762;38.084;2023-04-30T09:18:38;99561.63;;;11.28;53.14
53011;BME280;42803;55.762;38.084;2023-04-30T09:21:07;99576.66;;;11.42;53.43
53011;BME280;42803;55.762;38.084;2023-04-30T09:23:36;99563.91;;;11.58;53.34
53011;BME280;42803;55.762;38.084;2023-04-30T09:26:29;99562.31;;;11.95;52.94
53011;BME280;42803;55.762;38.084;2023-04-30T09:28:59;99563.25;;;12.33;52.85
53011;BME280;42803;55.762;38.084;2023-04-30T09:31:36;99550.84;;;12.55;52.11
53011;BME280;42803;55.762;38.084;2023-04-30T09:34:06;99550.00;;;12.68;52.12
53011;BME280;42803;55.762;38.084;2023-04-30T09:36:35;99539.25;;;12.77;51.45
53011;BME280;42803;55.762;38.084;2023-04-30T09:39:08;99541.63;;;12.99;51.33
53011;BME280;42803;55.762;38.084;2023-04-30T09:41:42;99533.31;;;13.17;51.09
53011;BME280;42803;55.762;38.084;2023-04-30T09:44:27;99530.03;;;13.33;50.25
53011;BME280;42803;55.762;38.084;2023-04-30T09:46:58;99530.94;;;12.96;50.53
53011;BME280;42803;55.762;38.084;2023-04-30T09:49:27;99531.16;;;12.99;50.73
53011;BME280;42803;55.762;38.084;2023-04-30T09:51:56;99521.81;;;13.15;51.16
53011;BME280;42803;55.762;38.084;2023-04-30T09:54:27;99520.94;;;13.41;50.21
53011;BME280;42803;55.762;38.084;2023-04-30T09:57:14;99511.06;;;13.37;49.30
53011;BME280;42803;55.762;38.084;2023-04-30T09:59:45;99516.91;;;13.47;49.11
53011;BME280;42803;55.762;38.084;2023-04-30T10:02:15;99511.06;;;13.37;49.27
53011;BME280;42803;55.762;38.084;2023-04-30T10:04:49;99505.47;;;13.20;49.13
53011;BME280;42803;55.762;38.084;2023-04-30T10:07:23;99513.25;;;13.18;49.57
53011;BME280;42803;55.762;38.084;2023-04-30T10:09:56;99503.06;;;13.09;50.14
53011;BME280;42803;55.762;38.084;2023-04-30T10:15:38;99498.94;;;13.13;50.62
53011;BME280;42803;55.762;38.084;2023-04-30T10:18:33;99493.91;;;13.43;50.76
53011;BME280;42803;55.762;38.084;2023-04-30T10:23:52;99505.09;;;13.13;49.54
53011;BME280;42803;55.762;38.084;2023-04-30T10:26:22;99515.22;;;12.96;49.23
53011;BME280;42803;55.762;38.084;2023-04-30T10:28:52;99512.44;;;13.06;49.66
53011;BME280;42803;55.762;38.084;2023-04-30T10:31:23;99525.31;;;13.03;49.84
53011;BME280;42803;55.762;38.084;2023-04-30T10:34:16;99514.72;;;13.39;49.70
53011;BME280;42803;55.762;38.084;2023-04-30T10:36:50;99510.47;;;13.41;49.55
53011;BME280;42803;55.762;38.084;2023-04-30T10:39:22;99511.16;;;13.26;49.41
53011;BME280;42803;55.762;38.084;2023-04-30T10:42:00;99516.38;;;12.74;49.45
53011;BME280;42803;55.762;38.084;2023-04-30T10:44:31;99520.63;;;12.72;50.49
53011;BME280;42803;55.762;38.084;2023-04-30T10:47:03;99521.44;;;12.71;49.93
53011;BME280;42803;55.762;38.084;2023-04-30T10:49:34;99525.31;;;12.64;49.58
53011;BME280;42803;55.762;38.084;2023-04-30T10:52:05;99529.91;;;12.80;50.08
53011;BME280;42803;55.762;38.084;2023-04-30T10:54:35;99525.97;;;12.49;50.20
53011;BME280;42803;55.762;38.084;2023-04-30T10:57:23;99524.47;;;12.52;50.69
53011;BME280;42803;55.762;38.084;2023-04-30T11:00:18;99516.03;;;12.56;51.00
53011;BME280;42803;55.762;38.084;2023-04-30T11:02:48;99512.75;;;12.72;50.61
53011;BME280;42803;55.762;38.084;2023-04-30T11:05:18;99507.22;;;12.67;51.01
53011;BME280;42803;55.762;38.084;2023-04-30T11:07:49;99500.28;;;12.81;51.54
53011;BME280;42803;55.762;38.084;2023-04-30T11:10:20;99489.19;;;12.85;51.45
53011;BME280;42803;55.762;38.084;2023-04-30T11:12:52;99498.81;;;12.60;50.91
53011;BME280;42803;55.762;38.084;2023-04-30T11:15:24;99487.69;;;12.51;50.79
53011;BME280;42803;55.762;38.084;2023-04-30T11:17:56;99472.56;;;12.33;51.13
53011;BME280;42803;55.762;38.084;2023-04-30T11:20:27;99487.41;;;12.09;51.11
53011;BME280;42803;55.762;38.084;2023-04-30T11:23:12;99465.94;;;12.02;52.21
53011;BME280;42803;55.762;38.084;2023-04-30T11:25:53;99456.28;;;12.01;52.67
53011;BME280;42803;55.762;38.084;2023-04-30T11:28:24;99451.19;;;11.90;52.54
53011;BME280;42803;55.762;38.084;2023-04-30T11:30:55;99449.53;;;11.91;53.53
53011;BME280;42803;55.762;38.084;2023-04-30T11:33:25;99439.16;;;11.92;53.85
53011;BME280;42803;55.762;38.084;2023-04-30T11:35:57;99447.91;;;11.81;53.88
53011;BME280;42803;55.762;38.084;2023-04-30T11:38:28;99447.88;;;11.56;54.17
53011;BME280;42803;55.762;38.084;2023-04-30T11:41:15;99435.50;;;11.54;54.20
53011;BME280;42803;55.762;38.084;2023-04-30T11:43:44;99437.06;;;11.52;54.34
53011;BME280;42803;55.762;38.084;2023-04-30T11:46:15;99428.91;;;11.47;54.70
53011;BME280;42803;55.762;38.084;2023-04-30T11:48:46;99424.16;;;11.41;55.01
53011;BME280;42803;55.762;38.084;2023-04-30T11:51:35;99422.91;;;11.25;55.10
53011;BME280;42803;55.762;38.084;2023-04-30T11:54:07;99422.59;;;11.20;55.89
53011;BME280;42803;55.762;38.084;2023-04-30T11:56:37;99421.94;;;11.11;56.39
53011;BME280;42803;55.762;38.084;2023-04-30T11:59:09;99416.00;;;11.02;56.58
53011;BME280;42803;55.762;38.084;2023-04-30T12:01:38;99409.78;;;11.00;56.91
53011;BME280;42803;55.762;38.084;2023-04-30T12:04:08;99406.47;;;11.02;57.17
53011;BME280;42803;55.762;38.084;2023-04-30T12:06:39;99414.06;;;10.87;57.33
53011;BME280;42803;55.762;38.084;2023-04-30T12:09:09;99405.34;;;10.87;57.76
53011;BME280;42803;55.762;38.084;2023-04-30T12:11:38;99401.72;;;10.73;57.53
53011;BME280;42803;55.762;38.084;2023-04-30T12:14:09;99410.88;;;10.68;58.21
53011;BME280;42803;55.762;38.084;2023-04-30T12:16:40;99410.78;;;10.66;58.13
53011;BME280;42803;55.762;38.084;2023-04-30T12:19:11;99411.44;;;10.64;58.85
53011;BME280;42803;55.762;38.084;2023-04-30T12:24:29;99409.88;;;10.54;58.68
53011;BME280;42803;55.762;38.084;2023-04-30T12:26:58;99420.31;;;10.54;58.49
53011;BME280;42803;55.762;38.084;2023-04-30T12:29:28;99414.84;;;10.51;58.50
53011;BME280;42803;55.762;38.084;2023-04-30T12:32:16;99420.41;;;10.56;58.44
53011;BME280;42803;55.762;38.084;2023-04-30T12:34:46;99417.34;;;10.49;58.86
53011;BME280;42803;55.762;38.084;2023-04-30T12:37:16;99422.22;;;10.57;58.73
53011;BME280;42803;55.762;38.084;2023-04-30T12:40:03;99422.03;;;10.65;58.66
53011;BME280;42803;55.762;38.084;2023-04-30T12:42:35;99428.16;;;10.66;58.63
53011;BME280;42803;55.762;38.084;2023-04-30T12:45:05;99413.28;;;10.65;58.70
53011;BME280;42803;55.762;38.084;2023-04-30T12:47:37;99416.66;;;10.64;58.82
53011;BME280;42803;55.762;38.084;2023-04-30T12:53:00;99393.75;;;10.83;59.23
53011;BME280;42803;55.762;38.084;2023-04-30T12:55:29;99390.00;;;10.80;58.72
53011;BME280;42803;55.762;38.084;2023-04-30T12:58:03;99394.22;;;10.78;58.42
53011;BME280;42803;55.762;38.084;2023-04-30T13:00:43;99392.19;;;10.85;58.69
53011;BME280;42803;55.762;38.084;2023-04-30T13:03:12;99399.19;;;10.86;58.88
53011;BME280;42803;55.762;38.084;2023-04-30T13:08:35;99398.31;;;10.86;59.30
53011;BME280;42803;55.762;38.084;2023-04-30T13:11:24;99408.28;;;10.68;60.02
53011;BME280;42803;55.762;38.084;2023-04-30T13:13:54;99407.03;;;10.63;60.01
53011;BME280;42803;55.762;38.084;2023-04-30T13:16:23;99408.72;;;10.51;59.90
53011;BME280;42803;55.762;38.084;2023-04-30T13:18:53;99404.97;;;10.47;60.34
53011;BME280;42803;55.762;38.084;2023-04-30T13:21:22;99404.63;;;10.42;60.39
53011;BME280;42803;55.762;38.084;2023-04-30T13:23:53;99408.81;;;10.40;60.97
53011;BME280;42803;55.762;38.084;2023-04-30T13:26:26;99405.97;;;10.37;61.41